createdAt,value
2018-09-05T00:01:11.265Z,13.40
2018-09-05T00:03:40.856Z,14.43
2018-09-05T00:06:14.856Z,13.20
2018-09-05T00:08:46.269Z,14.60
2018-09-05T00:11:18.356Z,13.70
2018-09-05T00:13:49.015Z,13.53
2018-09-05T00:16:27.813Z,13.27
2018-09-05T00:18:59.462Z,14.67
2018-09-05T00:21:29.948Z,14.83
2018-09-05T00:24:04.396Z,13.97
2018-09-05T00:26:35.371Z,13.77
2018-09-05T00:29:06.408Z,13.80
2018-09-05T00:31:37.675Z,15.30
2018-09-05T00:34:09.268Z,14.07
2018-09-05T00:36:39.892Z,15.10
2018-09-05T00:39:11.452Z,14.83
2018-09-05T00:41:43.604Z,14.90
2018-09-05T00:44:15.320Z,14.53
2018-09-05T00:46:53.598Z,15.30
2018-09-05T00:49:23.990Z,17.30
2018-09-05T00:51:54.592Z,16.13
2018-09-05T00:54:25.347Z,14.53
2018-09-05T00:56:55.796Z,14.83
2018-09-05T00:59:25.855Z,15.20
2018-09-05T01:01:57.061Z,14.10
2018-09-05T01:04:27.525Z,14.57
2018-09-05T01:06:59.704Z,14.23
2018-09-05T01:09:31.411Z,14.27
2018-09-05T01:12:01.520Z,14.53
2018-09-05T01:14:33.848Z,14.80
2018-09-05T01:17:04.712Z,15.03
2018-09-05T01:19:36.193Z,15.37
2018-09-05T01:22:08.788Z,15.87
2018-09-05T01:24:39.130Z,13.93
2018-09-05T01:27:12.896Z,15.03
2018-09-05T01:29:43.936Z,15.23
2018-09-05T01:32:14.352Z,14.93
2018-09-05T01:34:44.392Z,14.97
2018-09-05T01:37:23.216Z,14.93
2018-09-05T01:39:55.065Z,14.63
2018-09-05T01:42:26.192Z,16.67
2018-09-05T01:44:58.288Z,15.20
2018-09-05T01:47:29.528Z,15.00
2018-09-05T01:50:00.408Z,14.57
2018-09-05T01:52:30.684Z,15.73
2018-09-05T01:55:01.785Z,15.30
2018-09-05T01:57:31.929Z,14.10
2018-09-05T02:00:04.288Z,14.10
2018-09-05T02:02:36.060Z,14.43
2018-09-05T02:05:07.928Z,15.57
2018-09-05T02:07:38.797Z,14.90
2018-09-05T02:10:13.802Z,14.53
2018-09-05T02:12:44.235Z,14.50
2018-09-05T02:15:15.619Z,14.97
2018-09-05T02:17:45.936Z,14.50
2018-09-05T02:20:17.032Z,14.27
2018-09-05T02:22:48.141Z,13.30
2018-09-05T02:25:26.236Z,14.63
2018-09-05T02:27:57.516Z,13.87
2018-09-05T02:30:30.620Z,14.10
2018-09-05T02:33:02.964Z,14.03
2018-09-05T02:35:33.790Z,14.43
2018-09-05T02:38:04.056Z,14.10
2018-09-05T02:40:34.531Z,14.47
2018-09-05T02:43:06.012Z,16.67
2018-09-05T02:45:36.365Z,15.57
2018-09-05T02:48:06.771Z,14.87
2018-09-05T02:50:40.064Z,13.97
2018-09-05T02:53:11.980Z,15.10
2018-09-05T02:55:47.812Z,15.20
2018-09-05T02:58:18.328Z,15.17
2018-09-05T03:00:49.488Z,15.83
2018-09-05T03:03:19.700Z,18.03
2018-09-05T03:05:50.491Z,16.87
2018-09-05T03:08:20.816Z,19.20
2018-09-05T03:10:52.772Z,21.40
2018-09-05T03:13:23.830Z,18.60
2018-09-05T03:15:54.480Z,18.33
2018-09-05T03:18:25.480Z,18.10
2018-09-05T03:20:57.512Z,19.43
2018-09-05T03:23:29.922Z,16.27
2018-09-05T03:25:59.984Z,18.00
2018-09-05T03:28:31.698Z,17.10
2018-09-05T03:31:04.216Z,17.23
2018-09-05T03:33:34.499Z,17.80
2018-09-05T03:36:04.936Z,18.77
2018-09-05T03:38:35.252Z,17.30
2018-09-05T03:41:08.316Z,17.17
2018-09-05T03:43:39.163Z,16.70
2018-09-05T03:46:09.392Z,16.77
2018-09-05T03:48:41.323Z,17.43
2018-09-05T03:51:12.836Z,15.80
2018-09-05T03:53:44.852Z,16.10
2018-09-05T03:56:16.557Z,16.83
2018-09-05T03:58:48.396Z,19.23
2018-09-05T04:01:20.043Z,19.93
2018-09-05T04:03:51.108Z,19.37
2018-09-05T04:06:23.308Z,19.53
2018-09-05T04:08:54.233Z,19.10
2018-09-05T04:11:26.230Z,19.33
2018-09-05T04:13:57.836Z,17.90
2018-09-05T04:16:33.793Z,19.00
2018-09-05T04:19:04.028Z,22.13
2018-09-05T04:21:35.091Z,22.43
2018-09-05T04:24:06.397Z,21.57
2018-09-05T04:26:36.677Z,23.03
2018-09-05T04:29:07.347Z,23.63
2018-09-05T04:31:37.314Z,19.80
2018-09-05T04:34:08.488Z,19.87
2018-09-05T04:36:38.756Z,21.57
2018-09-05T04:39:10.736Z,21.60
2018-09-05T04:41:42.157Z,20.97
2018-09-05T04:44:13.477Z,18.83
2018-09-05T04:46:43.988Z,18.30
2018-09-05T04:49:15.497Z,19.17
2018-09-05T04:51:47.917Z,18.97
2018-09-05T04:54:18.936Z,17.53
2018-09-05T04:56:50.156Z,16.87
2018-09-05T04:59:20.582Z,17.07
2018-09-05T05:01:55.822Z,16.30
2018-09-05T05:04:28.562Z,14.97
2018-09-05T05:06:58.793Z,15.87
2018-09-05T05:09:31.013Z,16.37
2018-09-05T05:12:03.058Z,15.87
2018-09-05T05:14:33.887Z,16.30
2018-09-05T05:17:04.879Z,16.17
2018-09-05T05:19:36.036Z,28.30
2018-09-05T05:22:07.480Z,31.53
2018-09-05T05:24:37.936Z,27.07
2018-09-05T05:27:09.009Z,32.67
2018-09-05T05:29:40.180Z,26.17
2018-09-05T05:32:11.856Z,19.43
2018-09-05T05:34:42.452Z,19.27
2018-09-05T05:37:13.394Z,19.80
2018-09-05T05:39:43.913Z,19.10
2018-09-05T05:42:15.997Z,16.97
2018-09-05T05:44:47.649Z,16.80
2018-09-05T05:47:18.799Z,17.73
2018-09-05T05:49:57.134Z,17.30
2018-09-05T05:52:29.122Z,18.27
2018-09-05T05:55:00.246Z,16.70
2018-09-05T05:57:30.870Z,16.00
2018-09-05T06:00:02.474Z,15.97
2018-09-05T06:02:35.037Z,15.53
2018-09-05T06:05:05.444Z,17.70
2018-09-05T06:07:35.349Z,16.33
2018-09-05T06:10:08.217Z,16.30
2018-09-05T06:12:40.350Z,15.90
2018-09-05T06:15:12.149Z,16.77
2018-09-05T06:17:44.393Z,16.83
2018-09-05T06:20:14.919Z,16.87
2018-09-05T06:22:45.698Z,17.70
2018-09-05T06:25:16.480Z,18.17
2018-09-05T06:27:48.148Z,18.17
2018-09-05T06:30:18.859Z,17.70
2018-09-05T06:32:49.644Z,17.73
2018-09-05T06:35:21.149Z,17.13
2018-09-05T06:37:52.305Z,18.00
2018-09-05T06:40:22.765Z,17.47
2018-09-05T06:42:55.857Z,16.70
2018-09-05T06:45:28.144Z,19.03
2018-09-05T06:48:06.934Z,16.90
2018-09-05T06:50:45.563Z,16.57
2018-09-05T06:53:17.349Z,15.67
2018-09-05T06:55:55.416Z,15.43
2018-09-05T06:58:28.149Z,15.80
2018-09-05T07:00:57.786Z,15.37
2018-09-05T07:03:27.090Z,15.80
2018-09-05T07:05:56.125Z,15.27
2018-09-05T07:08:25.538Z,15.30
2018-09-05T07:10:55.205Z,14.60
2018-09-05T07:13:24.800Z,14.80
2018-09-05T07:15:55.145Z,15.17
2018-09-05T07:18:24.753Z,15.17
2018-09-05T07:21:05.683Z,14.63
2018-09-05T07:23:24.114Z,13.00
2018-09-05T07:25:54.076Z,15.20
2018-09-05T07:28:23.596Z,15.20
2018-09-05T07:30:53.295Z,14.80
2018-09-05T07:33:23.056Z,14.70
2018-09-05T07:35:52.596Z,15.33
2018-09-05T07:38:22.060Z,16.20
2018-09-05T07:40:50.635Z,16.27
2018-09-05T07:43:20.456Z,15.47
2018-09-05T07:45:50.695Z,15.43
2018-09-05T07:48:20.332Z,17.13
2018-09-05T07:50:49.054Z,16.50
2018-09-05T07:53:17.638Z,17.20
2018-09-05T07:55:46.158Z,17.30
2018-09-05T07:58:14.704Z,17.67
2018-09-05T08:00:43.272Z,17.23
2018-09-05T08:03:11.802Z,17.63
2018-09-05T08:05:40.340Z,17.90
2018-09-05T08:08:09.154Z,15.97
2018-09-05T08:10:37.702Z,17.47
2018-09-05T08:13:06.283Z,16.60
2018-09-05T08:15:35.904Z,17.20
2018-09-05T08:18:05.526Z,17.20
2018-09-05T08:20:37.096Z,17.47
2018-09-05T08:23:07.030Z,16.77
2018-09-05T08:25:35.597Z,16.00
2018-09-05T08:28:04.176Z,16.20
2018-09-05T08:30:32.747Z,16.70
2018-09-05T08:33:01.285Z,16.17
2018-09-05T08:35:30.121Z,15.73
2018-09-05T08:37:58.513Z,15.93
2018-09-05T08:40:27.023Z,15.67
2018-09-05T08:42:55.705Z,15.77
2018-09-05T08:45:24.508Z,15.20
2018-09-05T08:47:52.927Z,15.53
2018-09-05T08:50:21.376Z,15.10
2018-09-05T08:52:49.917Z,13.47
2018-09-05T08:55:18.529Z,13.90
2018-09-05T08:57:47.082Z,15.03
2018-09-05T09:00:15.636Z,14.67
2018-09-05T09:02:44.275Z,13.67
2018-09-05T09:05:12.805Z,14.20
2018-09-05T09:07:41.425Z,14.20
2018-09-05T09:10:10.012Z,13.83
2018-09-05T09:12:38.822Z,14.23
2018-09-05T09:15:07.468Z,12.20
2018-09-05T09:17:36.058Z,12.80
2018-09-05T09:20:04.676Z,12.33
2018-09-05T09:22:33.211Z,11.33
2018-09-05T09:25:01.777Z,11.83
2018-09-05T09:27:31.373Z,13.53
2018-09-05T09:30:00.100Z,11.97
2018-09-05T09:32:28.736Z,12.53
2018-09-05T09:34:57.279Z,11.30
2018-09-05T09:37:25.926Z,13.47
2018-09-05T09:39:54.470Z,12.93
2018-09-05T09:42:23.013Z,9.97
2018-09-05T09:44:51.573Z,10.83
2018-09-05T09:47:20.238Z,14.30
2018-09-05T09:49:49.903Z,14.20
2018-09-05T09:52:19.567Z,13.33
2018-09-05T09:54:50.190Z,13.17
2018-09-05T09:57:19.822Z,14.03
2018-09-05T09:59:49.297Z,13.33
2018-09-05T10:02:24.597Z,12.53
2018-09-05T10:05:00.121Z,13.00
2018-09-05T10:07:35.175Z,11.90
2018-09-05T10:10:09.702Z,11.07
2018-09-05T10:12:47.427Z,13.37
2018-09-05T10:15:22.019Z,14.63
2018-09-05T10:17:56.523Z,13.20
2018-09-05T10:20:26.354Z,12.93
2018-09-05T10:22:56.317Z,16.13
2018-09-05T10:25:25.776Z,13.33
2018-09-05T10:27:55.211Z,13.87
2018-09-05T10:30:25.520Z,13.40
2018-09-05T10:32:55.639Z,13.93
2018-09-05T10:35:25.096Z,12.80
2018-09-05T10:37:53.687Z,13.87
2018-09-05T10:40:24.188Z,13.70
2018-09-05T10:42:54.596Z,12.10
2018-09-05T10:45:23.213Z,13.40
2018-09-05T10:47:52.040Z,12.67
2018-09-05T10:50:20.588Z,11.37
2018-09-05T10:52:50.065Z,12.63
2018-09-05T10:55:18.627Z,11.30
2018-09-05T10:57:47.376Z,10.80
2018-09-05T11:00:15.910Z,11.78
2018-09-05T11:02:44.476Z,10.10
2018-09-05T11:05:13.023Z,10.93
2018-09-05T11:07:41.620Z,10.48
2018-09-05T11:10:10.373Z,9.75
2018-09-05T11:12:38.963Z,11.20
2018-09-05T11:15:07.582Z,11.97
2018-09-05T11:17:36.208Z,11.80
2018-09-05T11:20:05.728Z,10.58
2018-09-05T11:22:34.262Z,11.10
2018-09-05T11:25:02.808Z,10.72
2018-09-05T11:27:31.461Z,11.25
2018-09-05T11:30:00.089Z,10.85
2018-09-05T11:32:28.656Z,10.00
2018-09-05T11:34:57.660Z,10.53
2018-09-05T11:37:27.380Z,9.90
2018-09-05T11:39:56.828Z,10.82
2018-09-05T11:42:26.488Z,11.00
2018-09-05T11:44:57.085Z,10.20
2018-09-05T11:47:26.748Z,8.35
2018-09-05T11:49:56.136Z,10.20
2018-09-05T11:52:25.624Z,9.18
2018-09-05T11:54:54.172Z,9.70
2018-09-05T11:57:22.945Z,9.38
2018-09-05T11:59:51.486Z,8.80
2018-09-05T12:02:20.130Z,9.35
2018-09-05T12:04:48.710Z,9.43
2018-09-05T12:07:17.301Z,8.98
2018-09-05T12:09:46.111Z,9.08
2018-09-05T12:12:15.405Z,10.32
2018-09-05T12:14:44.004Z,9.50
2018-09-05T12:17:12.650Z,8.60
2018-09-05T12:19:41.581Z,9.10
2018-09-05T12:22:10.100Z,8.95
2018-09-05T12:24:38.977Z,8.80
2018-09-05T12:27:07.597Z,9.73
2018-09-05T12:29:36.376Z,9.20
2018-09-05T12:32:04.908Z,7.92
2018-09-05T12:34:33.441Z,8.10
2018-09-05T12:37:02.447Z,9.00
2018-09-05T12:39:30.955Z,8.75
2018-09-05T12:41:59.484Z,7.70
2018-09-05T12:44:28.037Z,8.70
2018-09-05T12:46:56.686Z,8.70
2018-09-05T12:49:25.692Z,8.55
2018-09-05T12:51:54.234Z,8.83
2018-09-05T12:54:22.855Z,8.48
2018-09-05T12:56:51.425Z,7.78
2018-09-05T12:59:19.994Z,7.97
2018-09-05T13:01:48.542Z,7.50
2018-09-05T13:04:17.159Z,8.88
2018-09-05T13:06:45.716Z,9.00
2018-09-05T13:09:14.890Z,8.73
2018-09-05T13:11:43.886Z,8.83
2018-09-05T13:14:12.438Z,8.93
2018-09-05T13:16:41.014Z,9.43
2018-09-05T13:19:09.753Z,8.00
2018-09-05T13:21:38.290Z,8.90
2018-09-05T13:24:06.808Z,9.53
2018-09-05T13:26:35.413Z,8.45
2018-09-05T13:29:03.943Z,8.83
2018-09-05T13:31:32.643Z,9.73
2018-09-05T13:34:01.147Z,9.28
2018-09-05T13:36:29.742Z,10.78
2018-09-05T13:38:58.252Z,9.73
2018-09-05T13:41:26.860Z,10.75
2018-09-05T13:43:55.404Z,10.82
2018-09-05T13:46:24.129Z,10.05
2018-09-05T13:48:52.719Z,9.63
2018-09-05T13:51:21.297Z,9.78
2018-09-05T13:53:49.886Z,8.88
2018-09-05T13:56:18.468Z,8.70
2018-09-05T13:58:47.085Z,9.33
2018-09-05T14:01:15.644Z,8.60
2018-09-05T14:03:44.199Z,9.23
2018-09-05T14:06:12.709Z,7.90
2018-09-05T14:08:41.223Z,8.03
2018-09-05T14:11:09.772Z,7.60
2018-09-05T14:13:38.368Z,7.40
2018-09-05T14:16:06.926Z,7.30
2018-09-05T14:18:35.673Z,7.75
2018-09-05T14:21:04.248Z,7.87
2018-09-05T14:23:32.957Z,7.10
2018-09-05T14:26:01.711Z,7.75
2018-09-05T14:28:30.284Z,7.37
2018-09-05T14:30:59.207Z,7.25
2018-09-05T14:33:28.012Z,7.45
2018-09-05T14:35:56.599Z,7.40
2018-09-05T14:38:25.191Z,6.83
2018-09-05T14:40:53.845Z,7.03
2018-09-05T14:43:22.402Z,7.12
2018-09-05T14:45:51.057Z,6.37
2018-09-05T14:48:19.789Z,7.92
2018-09-05T14:50:48.528Z,6.62
2018-09-05T14:53:17.136Z,7.78
2018-09-05T14:55:45.714Z,7.60
2018-09-05T14:58:14.787Z,7.80
2018-09-05T15:00:43.326Z,8.20
2018-09-05T15:03:11.847Z,7.90
2018-09-05T15:05:40.980Z,7.33
2018-09-05T15:08:09.536Z,8.20
2018-09-05T15:10:38.267Z,7.87
2018-09-05T15:13:06.865Z,8.05
2018-09-05T15:15:35.428Z,8.18
2018-09-05T15:18:03.994Z,7.78
2018-09-05T15:20:32.582Z,8.40
2018-09-05T15:23:01.470Z,8.45
2018-09-05T15:25:30.026Z,8.03
2018-09-05T15:27:58.558Z,7.87
2018-09-05T15:30:27.098Z,7.42
2018-09-05T15:32:55.648Z,7.17
2018-09-05T15:35:24.767Z,7.60
2018-09-05T15:37:53.361Z,7.97
2018-09-05T15:40:21.909Z,8.35
2018-09-05T15:42:50.426Z,7.70
2018-09-05T15:45:18.995Z,8.50
2018-09-05T15:47:47.505Z,8.05
2018-09-05T15:50:16.059Z,8.15
2018-09-05T15:52:44.575Z,8.35
2018-09-05T15:55:14.672Z,7.67
2018-09-05T15:57:44.280Z,8.00
2018-09-05T16:00:12.837Z,8.15
2018-09-05T16:02:41.616Z,7.78
2018-09-05T16:05:10.483Z,8.50
2018-09-05T16:07:39.016Z,7.55
2018-09-05T16:10:07.607Z,6.62
2018-09-05T16:12:36.163Z,8.00
2018-09-05T16:15:05.456Z,8.30
2018-09-05T16:17:33.955Z,8.33
2018-09-05T16:20:02.836Z,8.35
2018-09-05T16:22:31.440Z,8.53
2018-09-05T16:24:59.997Z,8.55
2018-09-05T16:27:28.535Z,7.83
2018-09-05T16:29:57.123Z,8.23
2018-09-05T16:32:25.639Z,7.72
2018-09-05T16:34:54.153Z,8.10
2018-09-05T16:37:22.777Z,7.80
2018-09-05T16:39:51.315Z,7.50
2018-09-05T16:42:19.836Z,8.48
2018-09-05T16:44:48.446Z,8.65
2018-09-05T16:47:17.327Z,8.78
2018-09-05T16:49:45.861Z,7.83
2018-09-05T16:52:14.414Z,8.65
2018-09-05T16:54:43.006Z,8.95
2018-09-05T16:57:11.549Z,8.60
2018-09-05T16:59:40.093Z,8.93
2018-09-05T17:02:08.655Z,8.60
2018-09-05T17:04:37.217Z,8.93
2018-09-05T17:07:05.807Z,8.50
2018-09-05T17:09:34.345Z,8.40
2018-09-05T17:12:02.928Z,8.43
2018-09-05T17:14:32.439Z,8.65
2018-09-05T17:17:00.971Z,9.58
2018-09-05T17:19:29.519Z,8.48
2018-09-05T17:21:58.073Z,9.20
2018-09-05T17:24:26.609Z,10.05
2018-09-05T17:26:55.144Z,10.28
2018-09-05T17:29:23.692Z,10.50
2018-09-05T17:31:52.206Z,10.03
2018-09-05T17:34:20.868Z,11.38
2018-09-05T17:36:49.682Z,11.08
2018-09-05T17:39:18.279Z,10.60
2018-09-05T17:41:46.872Z,13.23
2018-09-05T17:44:15.408Z,11.70
2018-09-05T17:46:44.034Z,11.10
2018-09-05T17:49:12.567Z,12.47
2018-09-05T17:51:41.125Z,11.27
2018-09-05T17:54:09.665Z,12.73
2018-09-05T17:56:38.260Z,11.63
2018-09-05T17:59:06.839Z,12.33
2018-09-05T18:01:35.469Z,11.40
2018-09-05T18:04:04.057Z,12.80
2018-09-05T18:06:32.614Z,11.50
2018-09-05T18:09:01.194Z,11.80
2018-09-05T18:11:30.245Z,12.80
2018-09-05T18:13:58.799Z,12.70
2018-09-05T18:16:27.336Z,12.07
2018-09-05T18:18:55.937Z,12.00
2018-09-05T18:21:24.557Z,12.87
2018-09-05T18:23:53.111Z,12.30
2018-09-05T18:26:21.707Z,13.23
2018-09-05T18:28:50.229Z,12.13
2018-09-05T18:31:18.851Z,12.27
2018-09-05T18:33:47.541Z,12.03
2018-09-05T18:36:16.160Z,12.20
2018-09-05T18:38:45.233Z,12.63
2018-09-05T18:41:13.891Z,13.07
2018-09-05T18:43:42.458Z,14.07
2018-09-05T18:46:11.071Z,13.20
2018-09-05T18:48:39.775Z,13.60
2018-09-05T18:51:08.407Z,13.07
2018-09-05T18:53:37.129Z,12.87
2018-09-05T18:56:05.830Z,12.70
2018-09-05T18:58:34.426Z,12.87
2018-09-05T19:01:03.122Z,12.03
2018-09-05T19:03:31.711Z,12.13
2018-09-05T19:06:00.271Z,13.10
2018-09-05T19:08:28.988Z,12.13
2018-09-05T19:10:57.555Z,14.37
2018-09-05T19:13:26.074Z,14.90
2018-09-05T19:15:54.767Z,13.90
2018-09-05T19:18:23.455Z,14.53
2018-09-05T19:20:52.027Z,13.67
2018-09-05T19:23:20.745Z,13.57
2018-09-05T19:25:49.292Z,13.33
2018-09-05T19:28:18.204Z,13.23
2018-09-05T19:30:47.774Z,13.80
2018-09-05T19:33:16.516Z,13.10
2018-09-05T19:35:45.685Z,13.53
2018-09-05T19:38:14.830Z,13.63
2018-09-05T19:40:43.410Z,12.63
2018-09-05T19:43:12.002Z,12.87
2018-09-05T19:45:40.551Z,13.80
2018-09-05T19:48:09.155Z,13.60
2018-09-05T19:50:37.694Z,14.67
2018-09-05T19:53:06.336Z,13.83
2018-09-05T19:55:34.892Z,13.50
2018-09-05T19:58:03.471Z,14.03
2018-09-05T20:00:31.993Z,13.50
2018-09-05T20:03:00.631Z,14.23
2018-09-05T20:05:29.202Z,13.73
2018-09-05T20:07:58.617Z,14.20
2018-09-05T20:10:27.187Z,14.07
2018-09-05T20:12:55.757Z,13.47
2018-09-05T20:15:25.066Z,14.53
2018-09-05T20:17:53.928Z,13.83
2018-09-05T20:20:22.457Z,13.57
2018-09-05T20:22:51.251Z,14.43
2018-09-05T20:25:20.004Z,14.53
2018-09-05T20:27:48.549Z,14.60
2018-09-05T20:30:17.084Z,14.30
2018-09-05T20:32:45.636Z,14.30
2018-09-05T20:35:14.331Z,14.40
2018-09-05T20:37:44.073Z,15.77
2018-09-05T20:40:13.813Z,15.07
2018-09-05T20:42:43.425Z,13.97
2018-09-05T20:45:13.169Z,15.40
2018-09-05T20:47:42.752Z,14.50
2018-09-05T20:50:13.082Z,15.47
2018-09-05T20:52:42.773Z,15.90
2018-09-05T20:55:12.082Z,15.57
2018-09-05T20:57:41.728Z,15.50
2018-09-05T21:00:13.570Z,15.80
2018-09-05T21:02:44.802Z,15.40
2018-09-05T21:05:15.273Z,14.63
2018-09-05T21:07:46.803Z,15.50
2018-09-05T21:10:18.590Z,16.40
2018-09-05T21:12:52.082Z,15.97
2018-09-05T21:15:22.909Z,16.13
2018-09-05T21:17:51.546Z,17.00
2018-09-05T21:20:20.122Z,16.93
2018-09-05T21:22:48.870Z,16.63
2018-09-05T21:25:17.428Z,16.63
2018-09-05T21:27:46.498Z,17.20
2018-09-05T21:30:15.129Z,16.70
2018-09-05T21:32:43.738Z,17.47
2018-09-05T21:35:12.329Z,17.30
2018-09-05T21:37:40.860Z,16.37
2018-09-05T21:40:09.520Z,15.37
2018-09-05T21:42:38.093Z,15.60
2018-09-05T21:45:07.118Z,15.87
2018-09-05T21:47:35.664Z,15.20
2018-09-05T21:50:04.205Z,15.87
2018-09-05T21:52:32.804Z,16.23
2018-09-05T21:55:01.356Z,15.90
2018-09-05T21:57:29.911Z,15.50
2018-09-05T21:59:58.739Z,16.27
2018-09-05T22:02:27.386Z,14.77
2018-09-05T22:04:56.382Z,15.50
2018-09-05T22:07:24.915Z,14.73
2018-09-05T22:09:53.428Z,14.70
2018-09-05T22:12:21.990Z,15.30
2018-09-05T22:14:50.521Z,16.10
2018-09-05T22:17:19.061Z,15.17
2018-09-05T22:19:47.641Z,15.93
2018-09-05T22:22:16.559Z,17.23
2018-09-05T22:24:45.095Z,15.60
2018-09-05T22:27:16.148Z,16.17
2018-09-05T22:29:47.179Z,15.77
2018-09-05T22:32:17.220Z,16.00
2018-09-05T22:34:47.185Z,17.47
2018-09-05T22:37:17.513Z,17.57
2018-09-05T22:39:49.461Z,18.10
2018-09-05T22:42:21.312Z,16.87
2018-09-05T22:45:03.081Z,16.13
2018-09-05T22:47:46.157Z,16.57
2018-09-05T22:50:31.297Z,15.63
2018-09-05T22:55:59.353Z,16.23
2018-09-05T23:00:51.157Z,16.90
2018-09-05T23:06:36.850Z,17.00
2018-09-05T23:09:09.176Z,17.20
2018-09-05T23:12:02.106Z,18.70
2018-09-05T23:14:42.892Z,19.60
2018-09-05T23:18:25.469Z,19.77
2018-09-05T23:21:20.390Z,18.80
2018-09-05T23:24:00.606Z,21.53
2018-09-05T23:26:36.296Z,20.93
2018-09-05T23:29:10.156Z,21.00
2018-09-05T23:31:40.696Z,19.23
2018-09-05T23:34:12.456Z,20.43
2018-09-05T23:36:44.556Z,19.77
2018-09-05T23:39:15.549Z,18.50
2018-09-05T23:41:45.984Z,19.30
2018-09-05T23:44:19.639Z,19.13
2018-09-05T23:46:50.269Z,18.90
2018-09-05T23:49:21.357Z,18.57
2018-09-05T23:51:51.544Z,17.83
2018-09-05T23:54:21.796Z,18.00
2018-09-05T23:56:52.558Z,18.77
2018-09-05T23:59:25.956Z,17.73
